createdAt,value
2023-03-26T00:00:56.840Z,69.98
2023-03-26T00:04:00.438Z,71.49
2023-03-26T00:07:03.806Z,71.75
2023-03-26T00:10:07.693Z,70.54
2023-03-26T00:13:11.713Z,70.23
2023-03-26T00:16:18.342Z,72.26
2023-03-26T00:19:22.650Z,71.76
2023-03-26T00:22:26.805Z,70.92
2023-03-26T00:25:32.099Z,71.03
2023-03-26T00:28:36.079Z,72.06
2023-03-26T00:31:46.437Z,72.99
2023-03-26T00:34:52.075Z,71.98
2023-03-26T00:37:55.748Z,72.08
2023-03-26T00:41:06.279Z,70.49
2023-03-26T00:44:09.682Z,69.84
2023-03-26T00:47:13.443Z,70.42
2023-03-26T00:50:17.666Z,71.81
2023-03-26T00:53:22.658Z,72.43
2023-03-26T00:56:26.707Z,74.42
2023-03-26T00:59:30.613Z,76.46
2023-03-26T01:02:34.191Z,77.63
2023-03-26T01:05:49.068Z,78.99
2023-03-26T01:08:54.789Z,79.68
2023-03-26T01:11:58.214Z,80.58
2023-03-26T01:15:04.132Z,81.55
2023-03-26T01:18:09.995Z,82.33
2023-03-26T01:21:14.703Z,83.71
2023-03-26T01:24:19.439Z,83.66
2023-03-26T01:27:35.918Z,84.76
2023-03-26T01:30:45.574Z,84.90
2023-03-26T01:34:05.279Z,85.86
2023-03-26T01:37:27.372Z,84.35
2023-03-26T01:40:43.049Z,85.05
2023-03-26T01:44:07.193Z,85.16
2023-03-26T01:47:12.944Z,83.17
2023-03-26T01:50:16.620Z,82.66
2023-03-26T01:53:20.117Z,82.30
2023-03-26T01:56:42.128Z,83.31
2023-03-26T02:00:06.901Z,84.23
2023-03-26T02:03:30.814Z,85.73
2023-03-26T02:06:46.400Z,86.93
2023-03-26T02:09:55.503Z,87.62
2023-03-26T02:12:59.324Z,86.67
2023-03-26T02:16:05.878Z,83.75
2023-03-26T02:19:15.711Z,82.15
2023-03-26T02:22:19.472Z,81.17
2023-03-26T02:25:22.588Z,80.34
2023-03-26T02:28:26.831Z,79.07
2023-03-26T02:31:30.404Z,79.31
2023-03-26T02:34:34.282Z,80.69
2023-03-26T02:37:38.393Z,81.83
2023-03-26T02:40:44.137Z,83.26
2023-03-26T02:43:47.623Z,84.34
2023-03-26T02:46:51.560Z,85.28
2023-03-26T02:49:56.007Z,86.26
2023-03-26T02:53:00.890Z,87.46
2023-03-26T02:56:05.777Z,88.79
2023-03-26T02:59:12.067Z,89.94
2023-03-26T03:02:18.524Z,90.41
2023-03-26T03:05:26.637Z,91.68
2023-03-26T03:08:30.499Z,91.96
2023-03-26T03:11:36.038Z,91.18
2023-03-26T03:14:40.941Z,90.67
2023-03-26T03:17:46.251Z,89.88
2023-03-26T03:20:50.977Z,89.24
2023-03-26T03:24:00.232Z,89.61
2023-03-26T03:27:04.264Z,89.75
2023-03-26T03:30:09.564Z,90.46
2023-03-26T03:33:14.526Z,91.46
2023-03-26T03:36:22.133Z,92.27
2023-03-26T03:39:26.301Z,93.08
2023-03-26T03:42:30.898Z,94.45
2023-03-26T03:45:34.266Z,94.70
2023-03-26T03:48:39.245Z,95.26
2023-03-26T03:51:43.991Z,96.12
2023-03-26T03:54:48.647Z,96.88
2023-03-26T03:57:52.754Z,97.39
2023-03-26T04:01:00.984Z,98.01
2023-03-26T04:04:06.527Z,98.67
2023-03-26T04:07:13.560Z,98.87
2023-03-26T04:10:18.039Z,99.56
2023-03-26T04:13:24.221Z,100.00
2023-03-26T04:16:29.171Z,100.00
2023-03-26T04:19:34.008Z,100.00
2023-03-26T04:22:41.222Z,100.00
2023-03-26T04:25:50.634Z,100.00
2023-03-26T04:28:59.991Z,100.00
2023-03-26T04:32:07.158Z,100.00
2023-03-26T04:35:16.497Z,100.00
2023-03-26T04:38:20.648Z,100.00
2023-03-26T04:41:27.770Z,100.00
2023-03-26T04:44:31.957Z,100.00
2023-03-26T04:47:37.274Z,100.00
2023-03-26T04:50:49.391Z,100.00
2023-03-26T04:54:00.618Z,100.00
2023-03-26T04:57:09.332Z,100.00
2023-03-26T05:00:17.694Z,100.00
2023-03-26T05:03:21.828Z,100.00
2023-03-26T05:06:28.922Z,100.00
2023-03-26T05:09:32.241Z,100.00
2023-03-26T05:12:38.122Z,100.00
2023-03-26T05:15:41.701Z,100.00
2023-03-26T05:18:46.830Z,100.00
2023-03-26T05:21:50.355Z,100.00
2023-03-26T05:24:53.844Z,100.00
2023-03-26T05:27:57.125Z,100.00
2023-03-26T05:31:01.387Z,100.00
2023-03-26T05:34:05.040Z,99.13
2023-03-26T05:37:12.381Z,96.31
2023-03-26T05:40:17.248Z,95.18
2023-03-26T05:43:21.242Z,93.76
2023-03-26T05:46:26.646Z,92.20
2023-03-26T05:49:30.274Z,90.95
2023-03-26T05:52:34.266Z,88.83
2023-03-26T05:55:50.663Z,86.99
2023-03-26T05:59:02.301Z,86.36
2023-03-26T06:02:09.509Z,85.01
2023-03-26T06:05:16.764Z,84.25
2023-03-26T06:08:22.112Z,83.73
2023-03-26T06:11:26.031Z,82.14
2023-03-26T06:14:29.134Z,82.58
2023-03-26T06:17:34.527Z,78.93
2023-03-26T06:20:42.692Z,75.69
2023-03-26T06:23:50.223Z,70.08
2023-03-26T06:26:53.659Z,68.83
2023-03-26T06:29:57.281Z,67.26
2023-03-26T06:33:01.236Z,64.81
2023-03-26T06:36:05.568Z,62.19
2023-03-26T06:39:08.915Z,59.54
2023-03-26T06:42:13.209Z,56.74
2023-03-26T06:45:17.339Z,57.28
2023-03-26T06:48:25.740Z,55.22
2023-03-26T06:51:31.592Z,55.00
2023-03-26T06:54:38.648Z,53.01
2023-03-26T06:57:45.361Z,53.62
2023-03-26T07:00:54.517Z,53.48
2023-03-26T07:04:01.244Z,52.72
2023-03-26T07:07:14.837Z,52.01
2023-03-26T07:10:20.543Z,53.25
2023-03-26T07:13:24.606Z,53.70
2023-03-26T07:16:30.295Z,52.45
2023-03-26T07:19:35.249Z,51.67
2023-03-26T07:22:39.226Z,52.55
2023-03-26T07:25:44.133Z,51.82
2023-03-26T07:29:12.807Z,50.53
2023-03-26T07:32:22.398Z,49.37
2023-03-26T07:35:48.997Z,49.29
2023-03-26T07:39:33.156Z,49.79
2023-03-26T07:43:09.388Z,46.86
2023-03-26T07:46:15.565Z,47.27
2023-03-26T07:49:20.803Z,46.67
2023-03-26T07:52:27.721Z,46.79
2023-03-26T07:55:31.662Z,47.27
2023-03-26T07:58:53.129Z,45.18
2023-03-26T08:02:21.441Z,45.55
2023-03-26T08:05:56.468Z,46.06
2023-03-26T08:09:22.898Z,48.35
2023-03-26T08:12:36.849Z,48.82
2023-03-26T08:15:57.859Z,49.42
2023-03-26T08:19:51.979Z,50.42
2023-03-26T08:23:02.417Z,49.80
2023-03-26T08:26:13.819Z,49.66
2023-03-26T08:29:34.767Z,49.87
2023-03-26T08:32:39.258Z,51.07
2023-03-26T08:35:43.204Z,52.08
2023-03-26T08:38:47.000Z,51.63
2023-03-26T08:41:58.981Z,51.26
2023-03-26T08:45:17.640Z,51.06
2023-03-26T08:49:01.522Z,52.62
2023-03-26T08:52:14.134Z,50.01
2023-03-26T08:55:26.253Z,50.88
2023-03-26T08:58:53.117Z,50.21
2023-03-26T09:02:08.897Z,50.68
2023-03-26T09:06:08.709Z,51.90
2023-03-26T09:09:49.442Z,50.47
2023-03-26T09:13:17.000Z,50.39
2023-03-26T09:16:26.592Z,50.38
2023-03-26T09:19:48.844Z,48.57
2023-03-26T09:23:07.166Z,49.21
2023-03-26T09:26:26.273Z,50.60
2023-03-26T09:30:07.136Z,49.36
2023-03-26T09:33:32.938Z,50.29
2023-03-26T09:36:49.590Z,49.20
2023-03-26T09:40:08.183Z,49.37
2023-03-26T09:43:36.926Z,48.95
2023-03-26T09:47:20.032Z,48.72
2023-03-26T09:50:35.241Z,50.13
2023-03-26T09:54:06.331Z,48.64
2023-03-26T09:57:22.913Z,48.61
2023-03-26T10:00:42.181Z,49.27
2023-03-26T10:04:24.493Z,50.43
2023-03-26T10:07:53.554Z,49.89
2023-03-26T10:10:59.686Z,47.71
2023-03-26T10:14:11.688Z,47.01
2023-03-26T10:17:32.065Z,46.08
2023-03-26T10:21:01.525Z,45.27
2023-03-26T10:24:34.730Z,43.03
2023-03-26T10:27:47.939Z,44.45
2023-03-26T10:31:06.248Z,44.77
2023-03-26T10:34:19.430Z,42.37
2023-03-26T10:37:51.689Z,41.93
2023-03-26T10:41:09.097Z,43.63
2023-03-26T10:44:31.830Z,41.10
2023-03-26T10:47:41.105Z,40.53
2023-03-26T10:51:06.442Z,40.61
2023-03-26T10:54:31.524Z,41.48
2023-03-26T10:57:46.368Z,39.51
2023-03-26T11:01:02.583Z,38.64
2023-03-26T11:04:44.886Z,40.63
2023-03-26T11:08:13.772Z,39.05
2023-03-26T11:11:23.417Z,39.36
2023-03-26T11:14:35.297Z,38.90
2023-03-26T11:18:00.450Z,37.20
2023-03-26T11:21:19.771Z,38.36
2023-03-26T11:24:57.665Z,39.00
2023-03-26T11:28:23.836Z,36.56
2023-03-26T11:31:45.728Z,36.69
2023-03-26T11:35:09.502Z,38.94
2023-03-26T11:38:20.998Z,36.26
2023-03-26T11:41:27.500Z,37.78
2023-03-26T11:44:39.629Z,38.32
2023-03-26T11:48:13.957Z,39.87
2023-03-26T11:51:25.905Z,38.49
2023-03-26T11:54:29.728Z,37.40
2023-03-26T11:57:36.305Z,38.85
2023-03-26T12:00:40.577Z,40.46
2023-03-26T12:03:57.615Z,41.44
2023-03-26T12:07:16.642Z,38.23
2023-03-26T12:10:26.497Z,38.40
2023-03-26T12:13:43.575Z,37.89
2023-03-26T12:17:14.456Z,37.96
2023-03-26T12:20:26.899Z,38.17
2023-03-26T12:23:46.027Z,37.72
2023-03-26T12:26:58.324Z,37.91
2023-03-26T12:30:22.497Z,36.63
2023-03-26T12:33:29.678Z,37.89
2023-03-26T12:36:35.995Z,38.80
2023-03-26T12:40:10.129Z,41.07
2023-03-26T12:44:55.972Z,41.62
2023-03-26T12:47:57.381Z,41.34
2023-03-26T12:50:42.849Z,40.78
2023-03-26T12:53:59.047Z,42.07
2023-03-26T12:57:22.826Z,41.35
2023-03-26T13:00:26.492Z,39.40
2023-03-26T13:03:51.742Z,37.47
2023-03-26T13:07:02.623Z,38.19
2023-03-26T13:10:57.683Z,39.31
2023-03-26T13:14:39.240Z,39.87
2023-03-26T13:18:02.503Z,39.79
2023-03-26T13:21:34.064Z,40.04
2023-03-26T13:24:49.474Z,38.99
2023-03-26T13:28:31.921Z,36.45
2023-03-26T13:32:05.598Z,37.52
2023-03-26T13:35:24.690Z,38.02
2023-03-26T13:38:58.960Z,36.95
2023-03-26T13:42:18.888Z,36.15
2023-03-26T13:45:54.595Z,33.50
2023-03-26T13:49:09.561Z,32.15
2023-03-26T13:52:19.315Z,30.53
2023-03-26T13:55:27.339Z,31.18
2023-03-26T13:59:09.589Z,31.29
2023-03-26T14:02:43.319Z,33.25
2023-03-26T14:05:51.979Z,34.36
2023-03-26T14:09:10.773Z,35.61
2023-03-26T14:12:39.228Z,35.11
2023-03-26T14:15:55.414Z,33.07
2023-03-26T14:19:25.045Z,30.95
2023-03-26T14:23:03.913Z,30.93
2023-03-26T14:26:42.812Z,30.51
2023-03-26T14:30:12.761Z,30.73
2023-03-26T14:33:28.501Z,30.19
2023-03-26T14:36:47.065Z,31.24
2023-03-26T14:40:23.594Z,30.15
2023-03-26T14:44:15.658Z,30.32
2023-03-26T14:47:23.001Z,29.89
2023-03-26T14:50:47.247Z,29.31
2023-03-26T14:54:01.025Z,29.30
2023-03-26T14:57:21.753Z,29.96
2023-03-26T15:00:56.278Z,31.06
2023-03-26T15:04:26.897Z,32.83
2023-03-26T15:07:53.444Z,34.19
2023-03-26T15:11:46.521Z,34.35
2023-03-26T15:15:31.306Z,35.33
2023-03-26T15:18:45.275Z,33.57
2023-03-26T15:22:15.769Z,33.31
2023-03-26T15:25:42.011Z,33.68
2023-03-26T15:29:04.015Z,34.52
2023-03-26T15:32:30.375Z,34.08
2023-03-26T15:35:46.228Z,35.28
2023-03-26T15:39:21.110Z,35.10
2023-03-26T15:42:38.283Z,35.99
2023-03-26T15:46:04.319Z,35.68
2023-03-26T15:49:40.411Z,36.06
2023-03-26T15:53:04.283Z,35.68
2023-03-26T15:56:17.861Z,35.11
2023-03-26T15:59:43.321Z,36.66
2023-03-26T16:02:53.980Z,36.03
2023-03-26T16:06:16.275Z,36.52
2023-03-26T16:09:40.430Z,37.05
2023-03-26T16:13:17.522Z,38.46
2023-03-26T16:16:25.800Z,37.57
2023-03-26T16:19:52.198Z,38.32
2023-03-26T16:23:17.047Z,39.02
2023-03-26T16:26:47.193Z,38.72
2023-03-26T16:30:02.016Z,39.25
2023-03-26T16:33:21.402Z,39.90
2023-03-26T16:36:35.239Z,39.74
2023-03-26T16:39:41.381Z,39.99
2023-03-26T16:43:25.750Z,40.32
2023-03-26T16:47:05.665Z,40.92
2023-03-26T16:50:12.380Z,41.23
2023-03-26T16:53:27.182Z,42.09
2023-03-26T16:56:49.895Z,41.96
2023-03-26T17:00:19.640Z,42.54
2023-03-26T17:03:48.878Z,43.75
2023-03-26T17:06:57.449Z,44.32
2023-03-26T17:10:31.741Z,44.38
2023-03-26T17:14:16.541Z,44.93
2023-03-26T17:17:47.391Z,46.12
2023-03-26T17:21:24.094Z,47.08
2023-03-26T17:24:33.709Z,47.71
2023-03-26T17:27:53.459Z,47.94
2023-03-26T17:31:36.999Z,48.38
2023-03-26T17:34:51.571Z,48.48
2023-03-26T17:37:58.770Z,48.70
2023-03-26T17:41:05.508Z,48.76
2023-03-26T17:44:43.544Z,47.79
2023-03-26T17:47:59.904Z,47.81
2023-03-26T17:51:43.018Z,48.16
2023-03-26T17:54:52.760Z,48.59
2023-03-26T17:58:05.118Z,49.26
2023-03-26T18:01:38.601Z,49.24
2023-03-26T18:04:48.514Z,49.36
2023-03-26T18:08:24.642Z,49.46
2023-03-26T18:12:02.038Z,49.52
2023-03-26T18:15:14.933Z,49.82
2023-03-26T18:18:23.676Z,49.79
2023-03-26T18:21:52.829Z,49.86
2023-03-26T18:25:00.465Z,50.33
2023-03-26T18:28:06.562Z,49.76
2023-03-26T18:31:32.249Z,50.04
2023-03-26T18:34:40.482Z,49.75
2023-03-26T18:37:46.264Z,49.62
2023-03-26T18:40:56.533Z,50.13
2023-03-26T18:44:12.243Z,50.18
2023-03-26T18:47:16.899Z,50.20
2023-03-26T18:50:43.670Z,50.15
2023-03-26T18:53:52.713Z,50.59
2023-03-26T18:56:59.686Z,50.20
2023-03-26T19:00:19.398Z,49.69
2023-03-26T19:03:26.675Z,49.91
2023-03-26T19:06:39.009Z,49.48
2023-03-26T19:09:44.645Z,48.59
2023-03-26T19:13:00.218Z,48.33
2023-03-26T19:16:34.457Z,48.91
2023-03-26T19:19:39.178Z,49.37
2023-03-26T19:22:46.930Z,49.92
2023-03-26T19:26:00.204Z,50.49
2023-03-26T19:29:06.316Z,50.26
2023-03-26T19:32:20.367Z,50.85
2023-03-26T19:35:25.953Z,51.41
2023-03-26T19:38:39.566Z,51.16
2023-03-26T19:41:50.988Z,51.18
2023-03-26T19:44:58.930Z,50.97
2023-03-26T19:48:15.298Z,51.08
2023-03-26T19:51:23.925Z,51.69
2023-03-26T19:54:33.793Z,51.95
2023-03-26T19:57:38.539Z,52.28
2023-03-26T20:00:46.145Z,51.58
2023-03-26T20:03:58.365Z,52.20
2023-03-26T20:07:03.046Z,52.13
2023-03-26T20:10:11.405Z,52.15
2023-03-26T20:13:18.588Z,52.66
2023-03-26T20:16:27.667Z,52.45
2023-03-26T20:19:32.215Z,52.81
2023-03-26T20:22:36.842Z,53.26
2023-03-26T20:25:50.188Z,52.96
2023-03-26T20:28:55.268Z,53.78
2023-03-26T20:31:59.973Z,54.61
2023-03-26T20:35:35.867Z,54.55
2023-03-26T20:38:44.777Z,54.90
2023-03-26T20:41:50.854Z,54.46
2023-03-26T20:44:58.828Z,54.19
2023-03-26T20:48:04.150Z,54.13
2023-03-26T20:51:15.663Z,53.87
2023-03-26T20:54:24.030Z,54.27
2023-03-26T20:57:27.558Z,54.28
2023-03-26T21:00:32.759Z,54.51
2023-03-26T21:03:36.138Z,54.88
2023-03-26T21:06:43.952Z,54.34
2023-03-26T21:09:48.861Z,54.26
2023-03-26T21:13:11.318Z,54.60
2023-03-26T21:16:15.011Z,54.22
2023-03-26T21:19:19.365Z,54.54
2023-03-26T21:22:25.985Z,54.82
2023-03-26T21:25:45.535Z,56.11
2023-03-26T21:28:50.531Z,58.54
2023-03-26T21:31:56.028Z,59.40
2023-03-26T21:34:59.718Z,60.17
2023-03-26T21:38:04.701Z,60.85
2023-03-26T21:41:25.340Z,61.87
2023-03-26T21:44:29.267Z,62.57
2023-03-26T21:47:32.765Z,64.18
2023-03-26T21:50:37.098Z,65.33
2023-03-26T21:53:41.730Z,66.90
2023-03-26T21:56:53.177Z,67.84
2023-03-26T22:00:25.735Z,68.58
2023-03-26T22:03:38.525Z,69.82
2023-03-26T22:06:49.245Z,69.93
2023-03-26T22:09:53.070Z,70.54
2023-03-26T22:12:56.523Z,70.37
2023-03-26T22:16:00.267Z,71.03
2023-03-26T22:19:03.455Z,71.54
2023-03-26T22:22:06.855Z,71.80
2023-03-26T22:25:10.580Z,72.04
2023-03-26T22:28:13.977Z,74.07
2023-03-26T22:31:17.742Z,73.88
2023-03-26T22:34:23.214Z,74.77
2023-03-26T22:37:26.439Z,75.83
2023-03-26T22:40:30.895Z,77.14
2023-03-26T22:43:34.486Z,79.98
2023-03-26T22:46:38.908Z,82.24
2023-03-26T22:49:42.089Z,85.18
2023-03-26T22:52:45.916Z,86.47
2023-03-26T22:55:49.025Z,87.32
2023-03-26T22:58:52.848Z,89.86
2023-03-26T23:01:56.808Z,92.60
2023-03-26T23:05:00.519Z,92.49
2023-03-26T23:08:04.195Z,94.10
2023-03-26T23:11:13.243Z,96.18
2023-03-26T23:14:16.733Z,97.24
2023-03-26T23:17:20.234Z,97.25
2023-03-26T23:20:24.064Z,98.37
2023-03-26T23:23:31.026Z,98.15
2023-03-26T23:26:43.872Z,99.03
2023-03-26T23:29:53.558Z,97.40
2023-03-26T23:32:57.410Z,99.31
2023-03-26T23:36:07.243Z,99.28
2023-03-26T23:39:10.999Z,100.00
2023-03-26T23:42:28.750Z,100.00
2023-03-26T23:45:33.570Z,100.00
2023-03-26T23:48:37.859Z,100.00
2023-03-26T23:51:42.223Z,100.00
2023-03-26T23:54:47.454Z,100.00
2023-03-26T23:57:51.733Z,100.00
